Pflugerville's Hourly Summary for Tuesday, July 10, 2018
Hour Temp
(f)
RH
(%)
Solar Rad.
(MJ/m2)
Rainfall
(in)
Wind
(mph)
7/10/2018 12:00 AM 72 98 0 0 1.68
7/10/2018 1:00 AM 71 98 0 0 0
7/10/2018 2:00 AM 71 97 0 0 0
7/10/2018 3:00 AM 71 97 0 0 0.01
7/10/2018 4:00 AM 71 97 0 0 0
7/10/2018 5:00 AM 0 0 0 0 0
7/10/2018 6:00 AM 73 98 0 0 3.03
7/10/2018 7:00 AM 73 99 0.1 0 3.75
7/10/2018 8:00 AM 75 99 0.42 0 5.53
7/10/2018 9:00 AM 78 88 0.77 0 6.71
7/10/2018 10:00 AM 81 78 2.01 0 6.71
7/10/2018 11:00 AM 83 67 2.56 0 6.52
7/10/2018 12:00 PM 85 63 3.08 0 6.85
7/10/2018 1:00 PM 86 59 3.33 0 7.02
7/10/2018 2:00 PM 87 54 3.33 0 7.75
7/10/2018 3:00 PM 89 51 3.25 0 7.75
7/10/2018 4:00 PM 90 47 2.96 0 7.73
7/10/2018 5:00 PM 90 42 2.48 0 7.73
7/10/2018 6:00 PM 90 42 1.88 0 6.86
7/10/2018 7:00 PM 90 46 1.03 0 5.44
7/10/2018 8:00 PM 89 56 0.51 0 3.94
7/10/2018 9:00 PM 86 63 0.06 0 3.79
7/10/2018 10:00 PM 83 67 0 0 3.66
7/10/2018 11:00 PM 81 76 0 0 3.66
Data Summary 77 70 27.77 0.00 4.42